createdAt,value
2019-05-18T00:00:10.778Z,97814.58
2019-05-18T00:02:44.986Z,97820.81
2019-05-18T00:05:19.773Z,97813.23
2019-05-18T00:07:55.511Z,97814.58
2019-05-18T00:10:29.289Z,97817.27
2019-05-18T00:13:03.039Z,97808.38
2019-05-18T00:15:36.722Z,97805.17
2019-05-18T00:18:10.527Z,97804.86
2019-05-18T00:20:44.160Z,97809.41
2019-05-18T00:23:17.766Z,97813.45
2019-05-18T00:25:51.760Z,97817.14
2019-05-18T00:28:25.347Z,97813.63
2019-05-18T00:31:00.304Z,97825.02
2019-05-18T00:33:35.523Z,97826.55
2019-05-18T00:36:09.479Z,97828.92
2019-05-18T00:38:43.200Z,97824.38
2019-05-18T00:41:16.918Z,97825.41
2019-05-18T00:43:51.649Z,97823.23
2019-05-18T00:46:25.412Z,97824.06
2019-05-18T00:48:59.169Z,97821.06
2019-05-18T00:51:33.032Z,97821.06
2019-05-18T00:54:08.409Z,97826.45
2019-05-18T00:56:42.272Z,97829.95
2019-05-18T00:59:17.077Z,97825.80
2019-05-18T01:01:50.777Z,97832.31
2019-05-18T01:04:26.301Z,97830.48
2019-05-18T01:07:00.004Z,97836.34
2019-05-18T01:09:33.863Z,97838.20
2019-05-18T01:12:07.657Z,97832.52
2019-05-18T01:14:42.648Z,97841.92
2019-05-18T01:17:16.502Z,97839.23
2019-05-18T01:19:50.239Z,97843.58
2019-05-18T01:22:23.933Z,97838.72
2019-05-18T01:24:57.743Z,97831.17
2019-05-18T01:27:31.923Z,97827.66
2019-05-18T01:30:06.659Z,97826.31
2019-05-18T01:32:40.423Z,97823.11
2019-05-18T01:35:14.769Z,97819.59
2019-05-18T01:37:50.314Z,97819.59
2019-05-18T01:40:25.801Z,97809.33
2019-05-18T01:42:59.564Z,97807.67
2019-05-18T01:45:33.273Z,97813.05
2019-05-18T01:48:13.898Z,97820.59
2019-05-18T01:50:44.707Z,97818.42
2019-05-18T01:53:18.515Z,97815.73
2019-05-18T01:55:52.313Z,97818.42
2019-05-18T01:58:26.023Z,97811.70
2019-05-18T02:00:59.760Z,97813.57
2019-05-18T02:03:33.497Z,97809.54
2019-05-18T02:06:07.378Z,97809.72
2019-05-18T02:08:41.768Z,97811.06
2019-05-18T02:11:15.598Z,97814.58
2019-05-18T02:13:49.309Z,97816.44
2019-05-18T02:16:23.008Z,97818.30
2019-05-18T02:18:56.719Z,97813.23
2019-05-18T02:21:30.501Z,97817.78
2019-05-18T02:24:04.388Z,97809.41
2019-05-18T02:26:38.208Z,97809.72
2019-05-18T02:29:12.675Z,97804.03
2019-05-18T02:31:46.402Z,97794.62
2019-05-18T02:34:20.147Z,97797.83
2019-05-18T02:36:53.755Z,97798.31
2019-05-18T02:39:27.578Z,97784.88
2019-05-18T02:42:01.356Z,97784.56
2019-05-18T02:44:35.089Z,97786.43
2019-05-18T02:47:08.821Z,97787.25
2019-05-18T02:49:42.797Z,97793.97
2019-05-18T02:52:16.551Z,97794.80
2019-05-18T02:54:50.234Z,97796.36
2019-05-18T02:57:23.994Z,97799.04
2019-05-18T02:59:57.841Z,97800.39
2019-05-18T03:02:31.931Z,97796.02
2019-05-18T03:05:06.641Z,97799.04
2019-05-18T03:07:40.419Z,97800.56
2019-05-18T03:10:14.102Z,97800.91
2019-05-18T03:12:47.859Z,97801.08
2019-05-18T03:15:21.827Z,97799.22
2019-05-18T03:17:55.552Z,97800.05
2019-05-18T03:20:29.290Z,97795.70
2019-05-18T03:23:03.067Z,97800.56
2019-05-18T03:25:37.955Z,97804.08
2019-05-18T03:28:11.832Z,97806.77
2019-05-18T03:30:45.665Z,97807.80
2019-05-18T03:33:19.984Z,97800.25
2019-05-18T03:35:53.769Z,97798.91
2019-05-18T03:38:27.520Z,97798.39
2019-05-18T03:41:01.231Z,97802.11
2019-05-18T03:43:34.965Z,97801.08
2019-05-18T03:46:08.642Z,97799.42
2019-05-18T03:48:44.181Z,97797.23
2019-05-18T03:51:17.826Z,97799.42
2019-05-18T03:53:51.571Z,97795.05
2019-05-18T03:56:25.275Z,97797.74
2019-05-18T03:58:58.890Z,97793.71
2019-05-18T04:01:32.627Z,97799.61
2019-05-18T04:04:06.332Z,97797.95
2019-05-18T04:06:40.153Z,97796.91
2019-05-18T04:09:13.874Z,97793.92
2019-05-18T04:11:47.566Z,97789.38
2019-05-18T04:14:21.324Z,97794.75
2019-05-18T04:16:57.881Z,97788.55
2019-05-18T04:19:45.804Z,97788.03
2019-05-18T04:22:07.199Z,97783.17
2019-05-18T04:24:42.712Z,97779.14
2019-05-18T04:27:16.399Z,97776.11
2019-05-18T04:29:50.210Z,97778.80
2019-05-18T04:32:23.886Z,97784.52
2019-05-18T04:34:57.633Z,97792.23
2019-05-18T04:37:31.477Z,97795.75
2019-05-18T04:40:05.434Z,97789.38
2019-05-18T04:42:39.061Z,97784.17
2019-05-18T04:45:12.895Z,97787.20
2019-05-18T04:47:48.599Z,97784.69
2019-05-18T04:50:22.385Z,97798.13
2019-05-18T04:52:56.019Z,97795.44
2019-05-18T04:55:29.757Z,97794.41
2019-05-18T04:58:03.445Z,97797.09
2019-05-18T05:00:38.271Z,97801.13
2019-05-18T05:03:12.367Z,97797.09
2019-05-18T05:05:46.113Z,97797.09
2019-05-18T05:08:19.867Z,97797.95
2019-05-18T05:10:53.568Z,97797.09
2019-05-18T05:13:27.283Z,97795.58
2019-05-18T05:16:01.031Z,97790.72
2019-05-18T05:18:34.856Z,97796.09
2019-05-18T05:21:08.494Z,97801.98
2019-05-18T05:23:42.473Z,97805.50
2019-05-18T05:26:16.110Z,97809.53
2019-05-18T05:28:49.825Z,97814.38
2019-05-18T05:31:23.523Z,97805.50
2019-05-18T05:33:57.226Z,97803.64
2019-05-18T05:36:30.940Z,97805.16
2019-05-18T05:39:06.185Z,97806.32
2019-05-18T05:41:39.889Z,97796.61
2019-05-18T05:44:13.637Z,97808.70
2019-05-18T05:46:47.348Z,97802.29
2019-05-18T05:49:22.487Z,97805.80
2019-05-18T05:51:56.087Z,97800.43
2019-05-18T05:54:29.813Z,97803.64
2019-05-18T05:57:03.633Z,97802.81
2019-05-18T05:59:37.345Z,97803.64
2019-05-18T06:02:11.233Z,97798.78
2019-05-18T06:04:44.985Z,97797.74
2019-05-18T06:07:18.719Z,97793.71
2019-05-18T06:09:52.693Z,97798.26
2019-05-18T06:12:26.443Z,97796.61
2019-05-18T06:15:00.223Z,97796.61
2019-05-18T06:17:33.955Z,97799.61
2019-05-18T06:20:07.869Z,97802.81
2019-05-18T06:22:43.009Z,97806.63
2019-05-18T06:25:16.776Z,97807.67
2019-05-18T06:27:50.441Z,97804.98
2019-05-18T06:30:24.134Z,97810.87
2019-05-18T06:32:57.802Z,97811.70
2019-05-18T06:35:32.108Z,97806.84
2019-05-18T06:38:06.104Z,97809.84
2019-05-18T06:40:39.793Z,97816.89
2019-05-18T06:43:13.694Z,97807.15
2019-05-18T06:45:47.519Z,97803.12
2019-05-18T06:48:21.705Z,97809.84
2019-05-18T06:51:06.879Z,97805.80
2019-05-18T06:53:32.890Z,97800.43
2019-05-18T06:56:06.626Z,97803.94
2019-05-18T06:58:40.507Z,97798.56
2019-05-18T07:01:14.154Z,97808.83
2019-05-18T07:03:47.909Z,97806.63
2019-05-18T07:06:21.614Z,97809.31
2019-05-18T07:08:55.365Z,97811.52
2019-05-18T07:11:29.344Z,97811.52
2019-05-18T07:14:03.859Z,97808.83
2019-05-18T07:16:38.560Z,97822.58
2019-05-18T07:19:12.572Z,97818.55
2019-05-18T07:21:46.175Z,97812.86
2019-05-18T07:24:19.887Z,97804.28
2019-05-18T07:26:53.597Z,97808.83
2019-05-18T07:29:27.320Z,97805.63
2019-05-18T07:32:01.813Z,97809.14
2019-05-18T07:34:35.505Z,97805.11
2019-05-18T07:37:09.370Z,97798.39
2019-05-18T07:39:43.105Z,97794.36
2019-05-18T07:42:16.832Z,97790.33
2019-05-18T07:44:50.485Z,97795.70
2019-05-18T07:47:24.205Z,97786.81
2019-05-18T07:49:57.972Z,97786.61
2019-05-18T07:52:31.720Z,97793.93
2019-05-18T07:55:05.518Z,97789.89
2019-05-18T07:57:39.279Z,97794.75
2019-05-18T08:00:14.401Z,97791.86
2019-05-18T08:02:49.250Z,97795.76
2019-05-18T08:05:23.087Z,97797.23
2019-05-18T08:07:56.831Z,97794.75
2019-05-18T08:10:37.922Z,97797.05
2019-05-18T08:13:11.935Z,97788.81
2019-05-18T08:15:45.611Z,97789.77
2019-05-18T08:18:19.362Z,97788.42
2019-05-18T08:20:53.058Z,97785.34
2019-05-18T08:23:26.800Z,97785.34
2019-05-18T08:26:00.491Z,97783.48
2019-05-18T08:28:34.218Z,97774.08
2019-05-18T08:31:08.016Z,97774.08
2019-05-18T08:33:42.122Z,97775.73
2019-05-18T08:36:15.832Z,97786.48
2019-05-18T08:38:49.667Z,97776.89
2019-05-18T08:41:23.271Z,97784.13
2019-05-18T08:43:57.250Z,97785.78
2019-05-18T08:46:30.958Z,97781.05
2019-05-18T08:49:04.699Z,97785.61
2019-05-18T08:51:38.569Z,97780.23
2019-05-18T08:54:12.656Z,97783.75
2019-05-18T08:56:46.551Z,97780.97
2019-05-18T08:59:20.153Z,97771.69
2019-05-18T09:01:53.894Z,97767.17
2019-05-18T09:04:29.449Z,97768.00
2019-05-18T09:07:03.170Z,97761.41
2019-05-18T09:09:36.989Z,97760.88
2019-05-18T09:12:10.719Z,97764.09
2019-05-18T09:14:44.507Z,97760.88
2019-05-18T09:17:18.282Z,97770.81
2019-05-18T09:19:54.125Z,97775.02
2019-05-18T09:22:27.869Z,97766.66
2019-05-18T09:25:02.222Z,97759.28
2019-05-18T09:27:36.165Z,97763.62
2019-05-18T09:30:10.199Z,97754.42
2019-05-18T09:32:43.924Z,97762.48
2019-05-18T09:35:17.806Z,97760.63
2019-05-18T09:37:51.499Z,97757.76
2019-05-18T09:40:25.455Z,97753.73
2019-05-18T09:42:59.174Z,97763.31
2019-05-18T09:45:33.050Z,97756.02
2019-05-18T09:48:06.804Z,97764.91
2019-05-18T09:50:40.549Z,97760.58
2019-05-18T09:53:14.365Z,97747.13
2019-05-18T09:55:48.098Z,97747.87
2019-05-18T09:58:22.118Z,97745.18
2019-05-18T10:00:57.428Z,97741.27
2019-05-18T10:03:31.084Z,97739.23
2019-05-18T10:06:04.749Z,97742.22
2019-05-18T10:08:38.527Z,97738.19
2019-05-18T10:11:12.641Z,97740.62
2019-05-18T10:13:46.331Z,97730.27
2019-05-18T10:16:20.210Z,97731.00
2019-05-18T10:18:53.935Z,97728.80
2019-05-18T10:21:27.710Z,97723.94
2019-05-18T10:24:01.688Z,97733.56
2019-05-18T10:26:35.382Z,97724.98
2019-05-18T10:29:09.142Z,97729.19
2019-05-18T10:31:44.424Z,97729.19
2019-05-18T10:34:18.329Z,97727.33
2019-05-18T10:36:52.045Z,97724.33
2019-05-18T10:39:25.741Z,97725.37
2019-05-18T10:41:59.547Z,97717.61
2019-05-18T10:44:33.613Z,97713.27
2019-05-18T10:47:08.461Z,97707.89
2019-05-18T10:49:42.398Z,97705.69
2019-05-18T10:52:16.157Z,97693.41
2019-05-18T10:54:50.010Z,97685.53
2019-05-18T10:57:23.777Z,97684.00
2019-05-18T10:59:57.415Z,97687.52
2019-05-18T11:02:31.971Z,97687.00
2019-05-18T11:05:06.369Z,97688.34
2019-05-18T11:07:40.101Z,97690.41
2019-05-18T11:10:13.890Z,97690.20
2019-05-18T11:12:47.589Z,97690.72
2019-05-18T11:15:23.102Z,97694.76
2019-05-18T11:17:57.031Z,97693.23
2019-05-18T11:20:30.858Z,97692.50
2019-05-18T11:23:04.629Z,97684.77
2019-05-18T11:25:38.453Z,97678.23
2019-05-18T11:28:12.699Z,97674.31
2019-05-18T11:30:46.411Z,97678.17
2019-05-18T11:33:20.158Z,97674.31
2019-05-18T11:35:54.077Z,97669.98
2019-05-18T11:38:27.859Z,97666.47
2019-05-18T11:41:01.993Z,97662.92
2019-05-18T11:43:35.833Z,97661.79
2019-05-18T11:46:09.462Z,97661.79
2019-05-18T11:48:43.306Z,97668.81
2019-05-18T11:51:17.754Z,97662.31
2019-05-18T11:53:58.222Z,97662.61
2019-05-18T11:56:27.588Z,97662.22
2019-05-18T11:59:01.374Z,97665.03
2019-05-18T12:01:35.238Z,97663.99
2019-05-18T12:04:09.192Z,97663.69
2019-05-18T12:06:44.545Z,97665.63
2019-05-18T12:09:18.281Z,97660.84
2019-05-18T12:11:52.308Z,97658.70
2019-05-18T12:14:26.102Z,97659.84
2019-05-18T12:17:00.033Z,97651.89
2019-05-18T12:19:35.935Z,97660.41
2019-05-18T12:22:09.619Z,97652.75
2019-05-18T12:24:43.425Z,97657.27
2019-05-18T12:27:17.133Z,97661.12
2019-05-18T12:29:50.886Z,97654.58
2019-05-18T12:32:26.233Z,97647.67
2019-05-18T12:34:59.992Z,97641.47
2019-05-18T12:37:33.693Z,97646.63
2019-05-18T12:40:07.821Z,97635.05
2019-05-18T12:42:41.486Z,97634.75
2019-05-18T12:45:16.387Z,97626.98
2019-05-18T12:47:50.099Z,97627.32
2019-05-18T12:50:23.838Z,97630.13
2019-05-18T12:52:58.050Z,97626.58
2019-05-18T12:55:32.201Z,97617.69
2019-05-18T12:58:06.028Z,97621.73
2019-05-18T13:00:39.790Z,97615.83
2019-05-18T13:03:13.382Z,97615.34
2019-05-18T13:05:47.101Z,97608.09
2019-05-18T13:08:20.829Z,97610.57
2019-05-18T13:10:54.581Z,97605.31
2019-05-18T13:13:28.401Z,97607.48
2019-05-18T13:16:02.477Z,97596.23
2019-05-18T13:18:36.390Z,97593.84
2019-05-18T13:21:10.111Z,97593.33
2019-05-18T13:23:43.920Z,97596.16
2019-05-18T13:26:17.718Z,97596.50
2019-05-18T13:28:51.415Z,97595.64
2019-05-18T13:31:25.194Z,97591.95
2019-05-18T13:33:58.918Z,97593.48
2019-05-18T13:36:32.965Z,97595.64
2019-05-18T13:39:08.255Z,97590.60
2019-05-18T13:41:43.881Z,97588.92
2019-05-18T13:44:17.629Z,97584.73
2019-05-18T13:46:51.400Z,97585.25
2019-05-18T13:49:27.065Z,97585.78
2019-05-18T13:52:00.899Z,97577.19
2019-05-18T13:54:34.650Z,97583.91
2019-05-18T13:57:08.493Z,97571.05
2019-05-18T13:59:42.645Z,97577.07
2019-05-18T14:02:16.429Z,97569.95
2019-05-18T14:04:50.202Z,97565.42
2019-05-18T14:07:24.154Z,97561.38
2019-05-18T14:09:57.972Z,97565.91
2019-05-18T14:12:31.955Z,97560.72
2019-05-18T14:15:05.764Z,97554.64
2019-05-18T14:17:39.720Z,97552.02
2019-05-18T14:20:13.448Z,97544.59
2019-05-18T14:22:47.120Z,97545.12
2019-05-18T14:25:20.876Z,97544.30
2019-05-18T14:27:56.004Z,97549.26
2019-05-18T14:30:30.888Z,97541.97
2019-05-18T14:33:04.638Z,97549.28
2019-05-18T14:35:38.436Z,97543.05
2019-05-18T14:38:12.443Z,97540.24
2019-05-18T14:40:46.278Z,97545.20
2019-05-18T14:43:20.138Z,97543.34
2019-05-18T14:45:54.317Z,97542.52
2019-05-18T14:48:28.193Z,97545.20
2019-05-18T14:51:02.045Z,97548.41
2019-05-18T14:53:35.820Z,97546.26
2019-05-18T14:56:09.561Z,97542.23
2019-05-18T14:58:43.303Z,97541.59
2019-05-18T15:01:17.071Z,97543.86
2019-05-18T15:03:50.898Z,97545.72
2019-05-18T15:06:24.601Z,97543.34
2019-05-18T15:08:58.449Z,97552.03
2019-05-18T15:11:32.285Z,97557.47
2019-05-18T15:14:06.152Z,97561.20
2019-05-18T15:16:39.926Z,97558.17
2019-05-18T15:19:13.676Z,97560.68
2019-05-18T15:21:47.466Z,97566.18
2019-05-18T15:24:21.099Z,97556.77
2019-05-18T15:26:54.859Z,97566.48
2019-05-18T15:29:29.318Z,97562.14
2019-05-18T15:32:03.116Z,97560.16
2019-05-18T15:34:36.946Z,97555.61
2019-05-18T15:37:10.675Z,97562.33
2019-05-18T15:39:45.237Z,97557.28
2019-05-18T15:42:18.943Z,97557.99
2019-05-18T15:44:53.035Z,97552.19
2019-05-18T15:47:26.631Z,97549.17
2019-05-18T15:50:00.254Z,97546.30
2019-05-18T15:52:33.915Z,97551.98
2019-05-18T15:55:07.788Z,97544.43
2019-05-18T15:57:41.613Z,97545.47
2019-05-18T16:00:15.378Z,97544.20
2019-05-18T16:02:49.398Z,97541.69
2019-05-18T16:05:23.116Z,97546.13
2019-05-18T16:07:56.896Z,97539.41
2019-05-18T16:10:30.589Z,97544.13
2019-05-18T16:13:04.465Z,97537.41
2019-05-18T16:15:38.419Z,97543.91
2019-05-18T16:18:12.307Z,97544.43
2019-05-18T16:20:46.010Z,97547.12
2019-05-18T16:23:19.652Z,97547.12
2019-05-18T16:25:53.525Z,97545.66
2019-05-18T16:28:27.380Z,97554.88
2019-05-18T16:31:01.154Z,97556.83
2019-05-18T16:33:34.926Z,97576.18
2019-05-18T16:36:08.703Z,97580.40
2019-05-18T16:38:42.742Z,97587.93
2019-05-18T16:41:16.466Z,97609.56
2019-05-18T16:43:50.370Z,97591.44
2019-05-18T16:46:24.210Z,97589.45
2019-05-18T16:48:57.900Z,97582.95
2019-05-18T16:51:31.836Z,97580.75
2019-05-18T16:54:05.712Z,97586.34
2019-05-18T16:56:39.546Z,97579.81
2019-05-18T16:59:13.542Z,97578.28
2019-05-18T17:01:47.401Z,97579.63
2019-05-18T17:04:21.102Z,97572.38
2019-05-18T17:06:54.822Z,97568.53
2019-05-18T17:09:28.714Z,97567.07
2019-05-18T17:12:03.082Z,97569.22
2019-05-18T17:14:36.818Z,97566.33
2019-05-18T17:17:10.597Z,97572.64
2019-05-18T17:19:44.327Z,97571.64
2019-05-18T17:22:18.139Z,97579.73
2019-05-18T17:24:52.412Z,97574.81
2019-05-18T17:27:26.181Z,97574.43
2019-05-18T17:29:59.908Z,97571.22
2019-05-18T17:32:33.973Z,97565.84
2019-05-18T17:35:07.899Z,97564.50
2019-05-18T17:37:42.340Z,97566.06
2019-05-18T17:40:16.107Z,97561.81
2019-05-18T17:42:49.845Z,97557.17
2019-05-18T17:45:23.656Z,97555.09
2019-05-18T17:47:57.443Z,97553.74
2019-05-18T17:50:31.188Z,97560.98
2019-05-18T17:53:05.035Z,97571.74
2019-05-18T17:55:38.742Z,97581.16
2019-05-18T17:58:12.931Z,97583.84
2019-05-18T18:00:46.844Z,97595.42
2019-05-18T18:03:20.492Z,97594.08
2019-05-18T18:05:54.170Z,97595.76
2019-05-18T18:08:27.999Z,97613.36
2019-05-18T18:11:01.759Z,97609.20
2019-05-18T18:13:35.476Z,97613.23
2019-05-18T18:16:09.239Z,97638.56
2019-05-18T18:18:43.004Z,97650.36
2019-05-18T18:21:16.737Z,97669.77
2019-05-18T18:23:54.890Z,97675.14
2019-05-18T18:26:27.146Z,97676.58
2019-05-18T18:29:04.168Z,97677.59
2019-05-18T18:31:36.439Z,97677.41
2019-05-18T18:34:10.193Z,97688.53
2019-05-18T18:36:44.050Z,97686.66
2019-05-18T18:39:17.807Z,97682.45
2019-05-18T18:41:51.555Z,97683.45
2019-05-18T18:44:25.321Z,97689.66
2019-05-18T18:46:59.051Z,97690.17
2019-05-18T18:49:32.963Z,97695.25
2019-05-18T18:52:06.706Z,97696.72
2019-05-18T18:54:40.415Z,97701.06
2019-05-18T18:57:14.293Z,97701.52
2019-05-18T18:59:48.043Z,97689.53
2019-05-18T19:02:21.965Z,97676.43
2019-05-18T19:04:55.928Z,97667.84
2019-05-18T19:07:29.625Z,97678.30
2019-05-18T19:10:03.451Z,97673.22
2019-05-18T19:12:37.513Z,97673.86
2019-05-18T19:15:11.324Z,97667.66
2019-05-18T19:17:45.214Z,97662.28
2019-05-18T19:20:18.934Z,97660.41
2019-05-18T19:22:52.922Z,97669.31
2019-05-18T19:25:26.626Z,97675.33
2019-05-18T19:28:00.385Z,97686.20
2019-05-18T19:30:34.145Z,97689.08
2019-05-18T19:33:07.737Z,97692.29
2019-05-18T19:35:42.032Z,97687.73
2019-05-18T19:38:15.742Z,97682.05
2019-05-18T19:40:49.743Z,97669.61
2019-05-18T19:43:23.626Z,97662.89
2019-05-18T19:45:58.587Z,97662.89
2019-05-18T19:48:32.826Z,97650.79
2019-05-18T19:51:06.823Z,97654.82
2019-05-18T19:53:40.460Z,97650.08
2019-05-18T19:56:14.273Z,97628.88
2019-05-18T19:58:48.053Z,97607.76
2019-05-18T20:01:21.778Z,97584.91
2019-05-18T20:03:55.805Z,97578.18
2019-05-18T20:06:29.536Z,97573.84
2019-05-18T20:09:03.919Z,97585.76
2019-05-18T20:11:37.798Z,97568.36
2019-05-18T20:14:12.060Z,97566.31
2019-05-18T20:16:46.071Z,97563.10
2019-05-18T20:19:19.988Z,97554.21
2019-05-18T20:21:53.750Z,97552.87
2019-05-18T20:24:27.574Z,97556.59
2019-05-18T20:27:01.688Z,97553.57
2019-05-18T20:29:37.040Z,97554.43
2019-05-18T20:32:10.800Z,97556.08
2019-05-18T20:34:44.884Z,97567.99
2019-05-18T20:37:18.609Z,97566.84
2019-05-18T20:39:52.856Z,97570.34
2019-05-18T20:42:26.548Z,97562.28
2019-05-18T20:45:00.377Z,97562.28
2019-05-18T20:47:34.125Z,97559.59
2019-05-18T20:50:08.352Z,97560.63
2019-05-18T20:52:42.032Z,97558.25
2019-05-18T20:55:16.064Z,97557.23
2019-05-18T20:57:49.776Z,97552.34
2019-05-18T21:00:23.636Z,97545.44
2019-05-18T21:02:57.400Z,97549.47
2019-05-18T21:05:31.255Z,97540.06
2019-05-18T21:08:05.076Z,97554.55
2019-05-18T21:10:38.981Z,97554.55
2019-05-18T21:13:13.147Z,97559.19
2019-05-18T21:15:46.947Z,97554.66
2019-05-18T21:18:21.671Z,97557.02
2019-05-18T21:20:55.531Z,97565.42
2019-05-18T21:23:29.211Z,97564.08
2019-05-18T21:26:04.376Z,97563.22
2019-05-18T21:28:38.115Z,97565.91
2019-05-18T21:31:12.251Z,97563.55
2019-05-18T21:33:45.860Z,97560.05
2019-05-18T21:36:19.606Z,97557.35
2019-05-18T21:38:53.403Z,97556.83
2019-05-18T21:41:27.196Z,97549.77
2019-05-18T21:44:00.907Z,97550.81
2019-05-18T21:46:34.661Z,97552.28
2019-05-18T21:49:08.397Z,97548.58
2019-05-18T21:51:42.102Z,97545.55
2019-05-18T21:54:15.827Z,97544.73
2019-05-18T21:56:49.550Z,97543.05
2019-05-18T21:59:23.310Z,97536.84
2019-05-18T22:01:56.934Z,97542.75
2019-05-18T22:04:30.888Z,97538.19
2019-05-18T22:07:04.759Z,97534.67
2019-05-18T22:09:39.998Z,97537.37
2019-05-18T22:12:13.815Z,97530.13
2019-05-18T22:14:47.596Z,97530.64
2019-05-18T22:17:21.912Z,97523.62
2019-05-18T22:19:55.759Z,97522.27
2019-05-18T22:22:29.495Z,97517.38
2019-05-18T22:25:03.459Z,97518.23
2019-05-18T22:27:37.200Z,97515.55
2019-05-18T22:30:11.001Z,97520.08
2019-05-18T22:32:44.961Z,97517.38
2019-05-18T22:35:18.680Z,97520.93
2019-05-18T22:37:52.844Z,97525.97
2019-05-18T22:40:26.704Z,97520.59
2019-05-18T22:43:00.399Z,97525.97
2019-05-18T22:45:35.350Z,97535.72
2019-05-18T22:48:09.077Z,97534.04
2019-05-18T22:50:43.117Z,97532.39
2019-05-18T22:53:16.946Z,97533.33
2019-05-18T22:55:50.764Z,97535.50
2019-05-18T22:58:24.692Z,97533.45
2019-05-18T23:00:58.523Z,97535.31
2019-05-18T23:03:32.602Z,97529.48
2019-05-18T23:06:06.508Z,97525.97
2019-05-18T23:08:40.248Z,97518.95
2019-05-18T23:11:14.336Z,97516.97
2019-05-18T23:13:48.156Z,97511.06
2019-05-18T23:16:21.967Z,97517.79
2019-05-18T23:18:57.228Z,97519.66
2019-05-18T23:21:31.634Z,97521.52
2019-05-18T23:24:05.382Z,97518.31
2019-05-18T23:26:39.188Z,97509.94
2019-05-18T23:29:12.948Z,97515.32
2019-05-18T23:31:46.653Z,97522.04
2019-05-18T23:34:20.487Z,97512.30
2019-05-18T23:36:54.500Z,97510.13
2019-05-18T23:39:28.249Z,97507.77
2019-05-18T23:42:07.959Z,97495.34
2019-05-18T23:44:42.781Z,97492.13
2019-05-18T23:47:16.458Z,97488.42
2019-05-18T23:49:50.211Z,97480.25
2019-05-18T23:52:23.997Z,97483.76
2019-05-18T23:54:57.761Z,97479.20
2019-05-18T23:57:31.458Z,97481.06
